Terminal Aerodrome Forecast
Issued by NWS Cleveland, OH

Home | Current Version | Previous Version | Graphics & Text | Print | Product List | Glossary On
Versions: 1 2 3 4 5 6 7 8 9 10 11 12 13 14 15 16 17
720
FTUS41 KCLE 262327
TAFYNG
TAF
KYNG 262327Z 2700/2724 21011KT P6SM SCT100
     FM271500 20007KT P6SM BKN040 OVC060
     FM272100 19008KT P6SM VCSH BKN025 OVC040=

USA.gov is the U.S. government's official web portal to all federal, state and local government web resources and services.